createdAt,value
2022-10-02T00:00:52.962Z,98478.72
2022-10-02T00:02:25.084Z,98484.44
2022-10-02T00:03:31.161Z,98478.72
2022-10-02T00:04:41.516Z,98480.25
2022-10-02T00:05:51.689Z,98491.25
2022-10-02T00:06:57.955Z,98485.19
2022-10-02T00:08:06.901Z,98481.81
2022-10-02T00:09:15.779Z,98497.66
2022-10-02T00:10:44.752Z,98493.13
2022-10-02T00:11:50.577Z,98503.69
2022-10-02T00:12:58.451Z,98498.38
2022-10-02T00:14:03.804Z,98505.53
2022-10-02T00:15:17.406Z,98504.28
2022-10-02T00:16:24.565Z,98499.31
2022-10-02T00:17:34.375Z,98499.75
2022-10-02T00:18:38.028Z,98506.56
2022-10-02T00:19:39.461Z,98506.59
2022-10-02T00:21:03.358Z,98502.91
2022-10-02T00:22:09.079Z,98505.97
2022-10-02T00:23:19.597Z,98507.97
2022-10-02T00:24:27.184Z,98512.88
2022-10-02T00:25:53.318Z,98513.97
2022-10-02T00:27:01.201Z,98508.59
2022-10-02T00:28:23.158Z,98512.00
2022-10-02T00:29:34.550Z,98514.28
2022-10-02T00:31:06.248Z,98520.75
2022-10-02T00:32:36.677Z,98516.59
2022-10-02T00:34:03.196Z,98510.91
2022-10-02T00:35:22.825Z,98506.84
2022-10-02T00:36:35.545Z,98514.44
2022-10-02T00:38:06.127Z,98516.69
2022-10-02T00:39:25.523Z,98515.91
2022-10-02T00:40:59.509Z,98516.34
2022-10-02T00:42:28.787Z,98514.44
2022-10-02T00:43:57.170Z,98513.66
2022-10-02T00:45:01.593Z,98517.06
2022-10-02T00:46:09.162Z,98517.44
2022-10-02T00:47:19.831Z,98519.34
2022-10-02T00:48:27.332Z,98518.25
2022-10-02T00:49:47.482Z,98518.63
2022-10-02T00:51:03.527Z,98524.66
2022-10-02T00:52:25.966Z,98517.78
2022-10-02T00:53:56.599Z,98516.69
2022-10-02T00:55:04.030Z,98517.16
2022-10-02T00:56:27.643Z,98520.88
2022-10-02T00:58:16.845Z,98524.63
2022-10-02T00:59:40.971Z,98521.22
2022-10-02T01:00:52.298Z,98522.34
2022-10-02T01:02:04.368Z,98519.31
2022-10-02T01:03:21.552Z,98520.41
2022-10-02T01:04:27.971Z,98514.03
2022-10-02T01:05:30.548Z,98522.13
2022-10-02T01:06:32.631Z,98512.31
2022-10-02T01:07:38.990Z,98517.53
2022-10-02T01:08:41.080Z,98514.41
2022-10-02T01:09:42.903Z,98515.53
2022-10-02T01:10:45.689Z,98518.56
2022-10-02T01:11:49.086Z,98517.06
2022-10-02T01:12:50.528Z,98515.63
2022-10-02T01:13:52.168Z,98515.25
2022-10-02T01:14:53.615Z,98512.53
2022-10-02T01:15:57.392Z,98514.75
2022-10-02T01:16:58.892Z,98504.88
2022-10-02T01:18:02.205Z,98505.97
2022-10-02T01:19:03.804Z,98507.84
2022-10-02T01:20:07.175Z,98512.75
2022-10-02T01:21:15.228Z,98513.88
2022-10-02T01:22:41.853Z,98511.91
2022-10-02T01:23:57.324Z,98514.50
2022-10-02T01:25:02.049Z,98514.84
2022-10-02T01:26:03.945Z,98519.75
2022-10-02T01:27:05.399Z,98518.25
2022-10-02T01:28:07.011Z,98517.47
2022-10-02T01:29:08.865Z,98520.06
2022-10-02T01:30:14.762Z,98526.06
2022-10-02T01:31:17.435Z,98527.91
2022-10-02T01:32:19.404Z,98525.75
2022-10-02T01:33:23.092Z,98527.25
2022-10-02T01:34:24.594Z,98533.59
2022-10-02T01:35:31.951Z,98528.22
2022-10-02T01:36:35.878Z,98533.16
2022-10-02T01:37:41.006Z,98531.03
2022-10-02T01:38:44.272Z,98529.19
2022-10-02T01:39:45.878Z,98525.75
2022-10-02T01:40:47.689Z,98532.16
2022-10-02T01:41:49.151Z,98534.06
2022-10-02T01:42:50.985Z,98533.25
2022-10-02T01:43:56.160Z,98539.28
2022-10-02T01:44:58.331Z,98529.34
2022-10-02T01:46:23.102Z,98528.63
2022-10-02T01:47:44.246Z,98532.09
2022-10-02T01:48:53.066Z,98533.56
2022-10-02T01:50:01.340Z,98529.88
2022-10-02T01:51:39.152Z,98527.31
2022-10-02T01:53:07.896Z,98529.59
2022-10-02T01:54:33.265Z,98531.19
2022-10-02T01:56:17.348Z,98526.53
2022-10-02T01:57:21.474Z,98531.06
2022-10-02T01:58:56.540Z,98532.56
2022-10-02T02:00:08.086Z,98524.28
2022-10-02T02:01:24.929Z,98518.59
2022-10-02T02:02:30.327Z,98529.63
2022-10-02T02:03:44.486Z,98524.69
2022-10-02T02:04:56.949Z,98533.41
2022-10-02T02:06:09.858Z,98533.72
2022-10-02T02:07:27.069Z,98538.97
2022-10-02T02:08:43.979Z,98538.16
2022-10-02T02:10:05.071Z,98531.28
2022-10-02T02:11:21.781Z,98535.75
2022-10-02T02:12:38.398Z,98542.94
2022-10-02T02:13:58.356Z,98537.34
2022-10-02T02:15:06.540Z,98536.16
2022-10-02T02:16:08.110Z,98527.88
2022-10-02T02:17:17.787Z,98530.97
2022-10-02T02:18:43.446Z,98532.84
2022-10-02T02:20:07.768Z,98542.69
2022-10-02T02:21:17.038Z,98544.19
2022-10-02T02:22:44.286Z,98553.56
2022-10-02T02:23:47.287Z,98552.41
2022-10-02T02:25:00.328Z,98544.47
2022-10-02T02:26:06.880Z,98539.66
2022-10-02T02:27:15.081Z,98530.91
2022-10-02T02:28:20.971Z,98529.03
2022-10-02T02:29:24.657Z,98531.06
2022-10-02T02:30:27.669Z,98530.75
2022-10-02T02:31:35.567Z,98529.59
2022-10-02T02:32:43.948Z,98527.28
2022-10-02T02:33:52.914Z,98525.69
2022-10-02T02:35:04.147Z,98526.06
2022-10-02T02:36:14.534Z,98535.13
2022-10-02T02:37:19.256Z,98538.97
2022-10-02T02:38:28.669Z,98542.41
2022-10-02T02:39:40.497Z,98544.03
2022-10-02T02:40:45.457Z,98547.38
2022-10-02T02:41:56.187Z,98549.16
2022-10-02T02:43:06.111Z,98548.00
2022-10-02T02:44:30.631Z,98554.72
2022-10-02T02:45:38.002Z,98553.56
2022-10-02T02:47:06.834Z,98549.00
2022-10-02T02:48:39.434Z,98553.88
2022-10-02T02:49:56.050Z,98556.94
2022-10-02T02:51:10.575Z,98555.91
2022-10-02T02:52:19.906Z,98553.25
2022-10-02T02:53:30.383Z,98556.22
2022-10-02T02:54:40.002Z,98553.16
2022-10-02T02:55:58.549Z,98546.47
2022-10-02T02:57:02.527Z,98548.41
2022-10-02T02:58:23.786Z,98555.22
2022-10-02T02:59:29.826Z,98550.69
2022-10-02T03:00:31.490Z,98544.31
2022-10-02T03:01:33.404Z,98546.25
2022-10-02T03:02:35.056Z,98545.13
2022-10-02T03:03:36.532Z,98547.41
2022-10-02T03:04:37.936Z,98550.78
2022-10-02T03:05:44.384Z,98553.44
2022-10-02T03:06:49.622Z,98547.44
2022-10-02T03:07:55.134Z,98549.69
2022-10-02T03:08:56.584Z,98551.97
2022-10-02T03:10:10.013Z,98548.19
2022-10-02T03:11:19.496Z,98542.53
2022-10-02T03:12:34.128Z,98538.75
2022-10-02T03:14:05.156Z,98543.28
2022-10-02T03:15:36.712Z,98541.00
2022-10-02T03:16:53.774Z,98546.31
2022-10-02T03:18:08.357Z,98553.44
2022-10-02T03:19:23.178Z,98548.91
2022-10-02T03:20:42.799Z,98551.59
2022-10-02T03:22:13.384Z,98546.25
2022-10-02T03:23:19.768Z,98543.16
2022-10-02T03:24:45.262Z,98542.03
2022-10-02T03:25:59.296Z,98549.22
2022-10-02T03:27:25.370Z,98545.88
2022-10-02T03:28:59.456Z,98556.84
2022-10-02T03:30:08.546Z,98558.63
2022-10-02T03:31:11.095Z,98564.28
2022-10-02T03:32:16.442Z,98557.50
2022-10-02T03:33:17.935Z,98556.41
2022-10-02T03:34:19.627Z,98547.28
2022-10-02T03:35:23.654Z,98552.19
2022-10-02T03:36:25.883Z,98550.69
2022-10-02T03:37:28.564Z,98548.03
2022-10-02T03:38:31.624Z,98539.72
2022-10-02T03:39:33.064Z,98543.16
2022-10-02T03:40:34.502Z,98544.25
2022-10-02T03:41:36.558Z,98539.72
2022-10-02T03:42:38.790Z,98539.78
2022-10-02T03:43:40.377Z,98546.59
2022-10-02T03:44:43.164Z,98542.53
2022-10-02T03:45:51.257Z,98547.06
2022-10-02T03:46:53.670Z,98543.66
2022-10-02T03:47:55.268Z,98553.44
2022-10-02T03:48:56.728Z,98556.09
2022-10-02T03:49:58.612Z,98564.44
2022-10-02T03:51:00.108Z,98562.50
2022-10-02T03:52:02.319Z,98557.97
2022-10-02T03:53:13.465Z,98567.56
2022-10-02T03:54:20.852Z,98567.91
2022-10-02T03:55:38.922Z,98563.31
2022-10-02T03:56:48.184Z,98561.44
2022-10-02T03:57:49.795Z,98559.88
2022-10-02T03:58:55.071Z,98555.38
2022-10-02T03:59:59.524Z,98555.09
2022-10-02T04:01:19.752Z,98557.44
2022-10-02T04:02:34.621Z,98558.50
2022-10-02T04:03:49.919Z,98560.34
2022-10-02T04:05:00.080Z,98556.56
2022-10-02T04:06:11.448Z,98555.81
2022-10-02T04:07:26.143Z,98550.94
2022-10-02T04:08:34.533Z,98547.22
2022-10-02T04:09:51.946Z,98547.22
2022-10-02T04:11:12.949Z,98544.94
2022-10-02T04:12:23.468Z,98542.69
2022-10-02T04:13:32.134Z,98548.78
2022-10-02T04:14:43.084Z,98540.19
2022-10-02T04:15:57.860Z,98546.13
2022-10-02T04:17:10.852Z,98536.75
2022-10-02T04:18:39.281Z,98527.59
2022-10-02T04:20:14.256Z,98531.22
2022-10-02T04:21:23.397Z,98533.88
2022-10-02T04:22:40.052Z,98536.16
2022-10-02T04:23:52.111Z,98543.31
2022-10-02T04:25:10.435Z,98549.41
2022-10-02T04:26:21.002Z,98537.28
2022-10-02T04:27:40.110Z,98544.47
2022-10-02T04:28:52.615Z,98546.13
2022-10-02T04:30:04.934Z,98553.66
2022-10-02T04:31:13.408Z,98544.56
2022-10-02T04:32:21.434Z,98546.03
2022-10-02T04:33:24.882Z,98538.84
2022-10-02T04:34:28.223Z,98541.50
2022-10-02T04:35:36.054Z,98545.66
2022-10-02T04:36:46.054Z,98546.84
2022-10-02T04:37:56.634Z,98547.88
2022-10-02T04:39:03.507Z,98553.38
2022-10-02T04:40:26.874Z,98543.91
2022-10-02T04:41:43.139Z,98540.19
2022-10-02T04:43:23.752Z,98542.63
2022-10-02T04:44:51.464Z,98548.31
2022-10-02T04:46:08.534Z,98553.22
2022-10-02T04:47:46.631Z,98559.31
2022-10-02T04:49:18.794Z,98555.09
2022-10-02T04:50:33.922Z,98558.56
2022-10-02T04:52:14.212Z,98558.88
2022-10-02T04:53:29.377Z,98559.03
2022-10-02T04:54:39.484Z,98557.47
2022-10-02T04:56:11.437Z,98568.53
2022-10-02T04:57:27.886Z,98569.31
2022-10-02T04:58:49.733Z,98563.88
2022-10-02T05:00:13.724Z,98561.97
2022-10-02T05:01:52.902Z,98561.84
2022-10-02T05:03:11.002Z,98562.59
2022-10-02T05:04:18.103Z,98558.94
2022-10-02T05:05:29.551Z,98557.44
2022-10-02T05:06:46.291Z,98561.22
2022-10-02T05:08:02.980Z,98564.59
2022-10-02T05:09:13.193Z,98567.25
2022-10-02T05:10:35.713Z,98562.78
2022-10-02T05:12:15.526Z,98560.19
2022-10-02T05:13:16.867Z,98571.03
2022-10-02T05:14:27.297Z,98562.00
2022-10-02T05:15:35.252Z,98557.16
2022-10-02T05:16:58.958Z,98561.34
2022-10-02T05:18:09.327Z,98563.16
2022-10-02T05:19:36.898Z,98565.78
2022-10-02T05:21:17.915Z,98574.59
2022-10-02T05:22:54.920Z,98568.38
2022-10-02T05:24:02.370Z,98562.44
2022-10-02T05:25:15.950Z,98553.06
2022-10-02T05:26:44.218Z,98558.72
2022-10-02T05:28:02.370Z,98562.53
2022-10-02T05:29:42.139Z,98558.66
2022-10-02T05:30:49.455Z,98557.16
2022-10-02T05:32:17.634Z,98565.09
2022-10-02T05:33:57.515Z,98569.94
2022-10-02T05:35:37.451Z,98570.84
2022-10-02T05:36:49.679Z,98570.41
2022-10-02T05:38:19.156Z,98564.66
2022-10-02T05:39:43.836Z,98571.53
2022-10-02T05:40:56.839Z,98563.72
2022-10-02T05:41:58.554Z,98565.16
2022-10-02T05:43:20.777Z,98561.78
2022-10-02T05:44:27.138Z,98562.59
2022-10-02T05:45:37.440Z,98564.53
2022-10-02T05:46:52.199Z,98551.63
2022-10-02T05:48:02.676Z,98556.16
2022-10-02T05:49:14.199Z,98556.88
2022-10-02T05:50:18.615Z,98551.19
2022-10-02T05:51:37.145Z,98556.00
2022-10-02T05:52:57.909Z,98557.56
2022-10-02T05:54:07.169Z,98566.28
2022-10-02T05:55:37.877Z,98564.31
2022-10-02T05:56:46.231Z,98562.72
2022-10-02T05:58:15.003Z,98561.47
2022-10-02T05:59:25.747Z,98566.44
2022-10-02T06:00:40.472Z,98560.13
2022-10-02T06:01:46.841Z,98556.00
2022-10-02T06:03:08.231Z,98561.59
2022-10-02T06:04:09.544Z,98561.69
2022-10-02T06:05:17.739Z,98558.28
2022-10-02T06:06:42.154Z,98559.78
2022-10-02T06:07:47.531Z,98572.66
2022-10-02T06:09:04.442Z,98561.97
2022-10-02T06:10:22.081Z,98563.97
2022-10-02T06:11:31.424Z,98559.94
2022-10-02T06:12:42.519Z,98561.41
2022-10-02T06:13:49.921Z,98560.97
2022-10-02T06:14:57.850Z,98562.06
2022-10-02T06:16:19.238Z,98551.94
2022-10-02T06:17:31.323Z,98561.41
2022-10-02T06:18:36.547Z,98562.53
2022-10-02T06:19:52.219Z,98565.63
2022-10-02T06:20:59.413Z,98572.31
2022-10-02T06:22:13.868Z,98566.66
2022-10-02T06:23:22.494Z,98570.47
2022-10-02T06:24:31.056Z,98567.44
2022-10-02T06:25:40.134Z,98569.25
2022-10-02T06:26:46.173Z,98567.16
2022-10-02T06:28:09.926Z,98563.47
2022-10-02T06:29:27.056Z,98565.09
2022-10-02T06:30:32.905Z,98572.75
2022-10-02T06:31:42.310Z,98566.72
2022-10-02T06:32:55.917Z,98572.03
2022-10-02T06:33:57.906Z,98573.38
2022-10-02T06:34:59.349Z,98567.91
2022-10-02T06:36:22.903Z,98572.03
2022-10-02T06:37:24.598Z,98575.44
2022-10-02T06:38:55.480Z,98574.53
2022-10-02T06:40:34.329Z,98569.84
2022-10-02T06:41:47.656Z,98570.53
2022-10-02T06:43:27.192Z,98573.34
2022-10-02T06:44:35.520Z,98576.44
2022-10-02T06:45:48.637Z,98574.59
2022-10-02T06:47:21.757Z,98571.75
2022-10-02T06:48:53.029Z,98570.63
2022-10-02T06:50:04.917Z,98577.81
2022-10-02T06:51:29.360Z,98574.78
2022-10-02T06:52:54.937Z,98577.06
2022-10-02T06:54:34.167Z,98575.88
2022-10-02T06:55:52.103Z,98568.59
2022-10-02T06:57:20.010Z,98567.88
2022-10-02T06:58:47.188Z,98568.25
2022-10-02T07:00:12.277Z,98573.28
2022-10-02T07:01:35.391Z,98571.47
2022-10-02T07:02:55.101Z,98574.91
2022-10-02T07:04:26.051Z,98576.41
2022-10-02T07:05:49.660Z,98574.69
2022-10-02T07:07:06.939Z,98579.31
2022-10-02T07:08:29.908Z,98580.09
2022-10-02T07:09:51.586Z,98581.50
2022-10-02T07:11:08.322Z,98578.06
2022-10-02T07:12:31.317Z,98580.75
2022-10-02T07:14:07.074Z,98585.34
2022-10-02T07:15:09.251Z,98586.13
2022-10-02T07:16:50.241Z,98596.41
2022-10-02T07:18:19.868Z,98597.28
2022-10-02T07:19:33.259Z,98601.69
2022-10-02T07:20:39.699Z,98598.41
2022-10-02T07:21:50.675Z,98598.75
2022-10-02T07:23:13.520Z,98595.34
2022-10-02T07:24:39.983Z,98594.09
2022-10-02T07:25:47.213Z,98595.22
2022-10-02T07:26:59.607Z,98592.19
2022-10-02T07:28:39.750Z,98588.72
2022-10-02T07:29:52.967Z,98595.22
2022-10-02T07:31:01.472Z,98597.06
2022-10-02T07:32:41.556Z,98593.81
2022-10-02T07:34:17.236Z,98595.34
2022-10-02T07:35:28.285Z,98594.50
2022-10-02T07:36:46.807Z,98595.59
2022-10-02T07:38:12.615Z,98597.16
2022-10-02T07:39:52.416Z,98603.25
2022-10-02T07:41:24.427Z,98601.06
2022-10-02T07:42:43.915Z,98595.75
2022-10-02T07:44:22.386Z,98601.94
2022-10-02T07:45:26.956Z,98600.81
2022-10-02T07:46:44.374Z,98601.91
2022-10-02T07:48:33.327Z,98598.91
2022-10-02T07:49:50.751Z,98602.03
2022-10-02T07:51:27.124Z,98596.66
2022-10-02T07:52:47.102Z,98598.03
2022-10-02T07:53:56.356Z,98594.72
2022-10-02T07:55:09.636Z,98592.38
2022-10-02T07:56:20.125Z,98596.19
2022-10-02T07:57:45.905Z,98596.56
2022-10-02T07:58:54.802Z,98602.28
2022-10-02T08:00:20.688Z,98603.56
2022-10-02T08:01:30.748Z,98597.78
2022-10-02T08:02:46.102Z,98601.06
2022-10-02T08:03:59.667Z,98600.34
2022-10-02T08:05:05.992Z,98604.13
2022-10-02T08:06:08.553Z,98603.84
2022-10-02T08:07:10.709Z,98606.84
2022-10-02T08:08:28.626Z,98606.50
2022-10-02T08:09:48.113Z,98597.06
2022-10-02T08:10:57.685Z,98591.75
2022-10-02T08:12:08.329Z,98604.34
2022-10-02T08:13:28.361Z,98605.94
2022-10-02T08:14:41.783Z,98593.09
2022-10-02T08:15:47.202Z,98605.31
2022-10-02T08:16:55.041Z,98601.16
2022-10-02T08:18:11.004Z,98605.31
2022-10-02T08:19:29.946Z,98605.31
2022-10-02T08:20:36.474Z,98594.69
2022-10-02T08:22:12.924Z,98597.28
2022-10-02T08:23:23.044Z,98599.09
2022-10-02T08:24:36.809Z,98595.50
2022-10-02T08:25:49.645Z,98604.66
2022-10-02T08:27:13.186Z,98605.91
2022-10-02T08:28:31.609Z,98598.63
2022-10-02T08:29:33.030Z,98595.66
2022-10-02T08:30:34.650Z,98595.84
2022-10-02T08:31:36.580Z,98600.78
2022-10-02T08:32:38.602Z,98594.06
2022-10-02T08:33:40.350Z,98602.84
2022-10-02T08:34:42.529Z,98604.09
2022-10-02T08:36:13.177Z,98599.88
2022-10-02T08:37:21.295Z,98602.63
2022-10-02T08:38:39.391Z,98600.38
2022-10-02T08:39:44.184Z,98601.53
2022-10-02T08:41:05.045Z,98597.31
2022-10-02T08:43:05.197Z,98599.22
2022-10-02T08:44:24.877Z,98591.59
2022-10-02T08:45:51.359Z,98593.47
2022-10-02T08:47:23.558Z,98591.97
2022-10-02T08:48:56.248Z,98588.19
2022-10-02T08:50:34.899Z,98587.00
2022-10-02T08:51:58.498Z,98585.13
2022-10-02T08:53:37.423Z,98591.25
2022-10-02T08:55:00.673Z,98588.63
2022-10-02T08:56:19.811Z,98584.41
2022-10-02T08:57:52.811Z,98589.38
2022-10-02T08:59:19.081Z,98590.59
2022-10-02T09:00:57.857Z,98585.63
2022-10-02T09:02:14.239Z,98588.63
2022-10-02T09:03:45.845Z,98587.97
2022-10-02T09:05:09.789Z,98584.88
2022-10-02T09:06:30.549Z,98587.34
2022-10-02T09:08:08.790Z,98583.78
2022-10-02T09:09:28.494Z,98584.81
2022-10-02T09:10:55.651Z,98584.88
2022-10-02T09:12:06.325Z,98580.66
2022-10-02T09:13:13.346Z,98581.97
2022-10-02T09:14:34.729Z,98577.44
2022-10-02T09:16:09.540Z,98577.78
2022-10-02T09:17:30.985Z,98583.16
2022-10-02T09:18:51.006Z,98584.75
2022-10-02T09:20:04.329Z,98578.78
2022-10-02T09:21:50.881Z,98578.47
2022-10-02T09:23:17.282Z,98589.28
2022-10-02T09:25:01.719Z,98590.34
2022-10-02T09:26:36.355Z,98581.72
2022-10-02T09:28:06.270Z,98574.41
2022-10-02T09:29:35.036Z,98574.75
2022-10-02T09:30:57.568Z,98573.22
2022-10-02T09:32:11.905Z,98578.91
2022-10-02T09:33:22.090Z,98585.47
2022-10-02T09:34:56.166Z,98579.75
2022-10-02T09:36:24.732Z,98585.34
2022-10-02T09:38:11.403Z,98581.72
2022-10-02T09:39:31.047Z,98588.53
2022-10-02T09:40:54.729Z,98582.81
2022-10-02T09:42:21.206Z,98575.97
2022-10-02T09:43:51.919Z,98585.81
2022-10-02T09:45:19.080Z,98580.84
2022-10-02T09:46:31.183Z,98585.19
2022-10-02T09:48:23.007Z,98581.78
2022-10-02T09:49:46.121Z,98580.59
2022-10-02T09:51:09.468Z,98575.63
2022-10-02T09:52:30.610Z,98581.81
2022-10-02T09:53:47.274Z,98585.56
2022-10-02T09:54:58.020Z,98584.41
2022-10-02T09:56:18.431Z,98585.50
2022-10-02T09:57:49.173Z,98578.72
2022-10-02T09:59:12.431Z,98589.34
2022-10-02T10:00:19.881Z,98579.41
2022-10-02T10:02:05.878Z,98588.47
2022-10-02T10:03:28.893Z,98587.44
2022-10-02T10:05:00.940Z,98581.00
2022-10-02T10:06:22.510Z,98588.19
2022-10-02T10:07:59.012Z,98581.66
2022-10-02T10:09:49.813Z,98575.75
2022-10-02T10:11:10.607Z,98567.84
2022-10-02T10:12:43.373Z,98574.75
2022-10-02T10:13:47.850Z,98569.16
2022-10-02T10:14:55.190Z,98570.34
2022-10-02T10:16:33.268Z,98560.56
2022-10-02T10:18:13.696Z,98559.38
2022-10-02T10:19:52.768Z,98560.91
2022-10-02T10:21:20.579Z,98562.44
2022-10-02T10:22:47.091Z,98566.50
2022-10-02T10:24:26.452Z,98567.34
2022-10-02T10:25:51.388Z,98562.06
2022-10-02T10:27:19.526Z,98560.56
2022-10-02T10:28:53.355Z,98563.59
2022-10-02T10:30:26.579Z,98564.06
2022-10-02T10:32:04.042Z,98558.75
2022-10-02T10:33:34.537Z,98552.19
2022-10-02T10:34:49.624Z,98555.78
2022-10-02T10:36:29.573Z,98553.34
2022-10-02T10:38:11.946Z,98558.97
2022-10-02T10:39:38.272Z,98551.78
2022-10-02T10:40:58.001Z,98547.50
2022-10-02T10:43:07.038Z,98551.84
2022-10-02T10:44:22.252Z,98540.94
2022-10-02T10:45:59.994Z,98545.97
2022-10-02T10:47:16.027Z,98549.00
2022-10-02T10:48:33.134Z,98551.97
2022-10-02T10:50:03.248Z,98556.47
2022-10-02T10:51:30.529Z,98556.06
2022-10-02T10:52:54.391Z,98559.81
2022-10-02T10:54:17.366Z,98559.06
2022-10-02T10:55:33.178Z,98557.16
2022-10-02T10:56:39.346Z,98562.44
2022-10-02T10:57:43.946Z,98560.91
2022-10-02T10:59:25.316Z,98560.56
2022-10-02T11:00:49.055Z,98565.41
2022-10-02T11:02:20.606Z,98561.97
2022-10-02T11:03:41.425Z,98557.88
2022-10-02T11:04:58.448Z,98553.06
2022-10-02T11:06:22.298Z,98559.88
2022-10-02T11:07:35.438Z,98557.63
2022-10-02T11:08:45.664Z,98558.75
2022-10-02T11:10:11.248Z,98557.25
2022-10-02T11:11:27.868Z,98560.53
2022-10-02T11:12:54.013Z,98559.47
2022-10-02T11:14:19.849Z,98549.25
2022-10-02T11:15:41.057Z,98557.00
2022-10-02T11:17:11.323Z,98547.53
2022-10-02T11:18:28.788Z,98549.50
2022-10-02T11:19:54.744Z,98551.84
2022-10-02T11:21:10.672Z,98550.34
2022-10-02T11:22:46.898Z,98553.41
2022-10-02T11:23:57.335Z,98551.91
2022-10-02T11:25:14.097Z,98550.88
2022-10-02T11:26:45.025Z,98551.63
2022-10-02T11:28:05.299Z,98553.13
2022-10-02T11:29:25.728Z,98546.69
2022-10-02T11:30:41.892Z,98559.66
2022-10-02T11:32:28.320Z,98552.47
2022-10-02T11:33:57.263Z,98558.50
2022-10-02T11:35:10.587Z,98560.34
2022-10-02T11:36:21.255Z,98562.59
2022-10-02T11:37:53.548Z,98558.41
2022-10-02T11:39:06.754Z,98553.88
2022-10-02T11:40:30.072Z,98553.50
2022-10-02T11:42:05.573Z,98560.69
2022-10-02T11:43:44.043Z,98559.13
2022-10-02T11:44:57.804Z,98565.28
2022-10-02T11:46:00.197Z,98552.41
2022-10-02T11:47:18.112Z,98558.84
2022-10-02T11:48:44.774Z,98558.72
2022-10-02T11:50:08.409Z,98564.06
2022-10-02T11:51:30.107Z,98570.50
2022-10-02T11:52:48.416Z,98569.06
2022-10-02T11:54:23.216Z,98573.50
2022-10-02T11:55:33.883Z,98571.16
2022-10-02T11:56:59.102Z,98567.03
2022-10-02T11:58:13.153Z,98567.81
2022-10-02T11:59:33.633Z,98571.97
2022-10-02T12:01:13.240Z,98568.84
2022-10-02T12:02:37.583Z,98564.06
2022-10-02T12:04:01.703Z,98569.84
2022-10-02T12:05:34.645Z,98556.28
2022-10-02T12:06:48.170Z,98553.50
2022-10-02T12:08:30.960Z,98551.91
2022-10-02T12:09:58.968Z,98551.19
2022-10-02T12:11:37.629Z,98543.91
2022-10-02T12:12:58.735Z,98536.38
2022-10-02T12:14:17.040Z,98537.91
2022-10-02T12:15:50.441Z,98532.69
2022-10-02T12:16:55.067Z,98538.47
2022-10-02T12:18:19.466Z,98544.50
2022-10-02T12:19:37.512Z,98541.47
2022-10-02T12:21:06.746Z,98543.69
2022-10-02T12:23:08.078Z,98543.28
2022-10-02T12:24:36.482Z,98542.91
2022-10-02T12:26:22.172Z,98528.84
2022-10-02T12:27:39.747Z,98533.78
2022-10-02T12:29:13.275Z,98538.34
2022-10-02T12:30:22.393Z,98536.19
2022-10-02T12:31:55.785Z,98533.53
2022-10-02T12:33:09.579Z,98535.78
2022-10-02T12:34:24.361Z,98529.28
2022-10-02T12:35:59.537Z,98533.69
2022-10-02T12:37:38.645Z,98529.56
2022-10-02T12:39:21.977Z,98526.19
2022-10-02T12:40:31.837Z,98521.31
2022-10-02T12:42:11.638Z,98531.63
2022-10-02T12:43:17.746Z,98538.06
2022-10-02T12:44:39.242Z,98536.88
2022-10-02T12:45:49.592Z,98539.19
2022-10-02T12:47:11.261Z,98533.84
2022-10-02T12:48:47.989Z,98538.81
2022-10-02T12:50:17.263Z,98535.03
2022-10-02T12:51:48.093Z,98548.00
2022-10-02T12:53:27.294Z,98545.69
2022-10-02T12:54:47.474Z,98550.97
2022-10-02T12:56:36.310Z,98547.91
2022-10-02T12:57:53.485Z,98547.53
2022-10-02T12:59:11.997Z,98550.19
2022-10-02T13:00:18.739Z,98552.91
2022-10-02T13:01:37.784Z,98558.19
2022-10-02T13:03:15.667Z,98551.34
2022-10-02T13:04:26.599Z,98557.06
2022-10-02T13:05:51.236Z,98558.03
2022-10-02T13:07:14.720Z,98561.44
2022-10-02T13:08:31.952Z,98558.72
2022-10-02T13:09:55.108Z,98558.78
2022-10-02T13:11:31.327Z,98560.47
2022-10-02T13:13:04.736Z,98561.88
2022-10-02T13:14:26.352Z,98550.47
2022-10-02T13:15:42.414Z,98558.44
2022-10-02T13:16:46.752Z,98563.69
2022-10-02T13:18:02.908Z,98556.91
2022-10-02T13:19:15.933Z,98553.56
2022-10-02T13:20:41.890Z,98564.19
2022-10-02T13:21:58.967Z,98553.91
2022-10-02T13:23:22.245Z,98557.28
2022-10-02T13:24:56.303Z,98567.41
2022-10-02T13:26:30.407Z,98569.16
2022-10-02T13:28:03.732Z,98561.97
2022-10-02T13:29:33.014Z,98559.38
2022-10-02T13:30:50.302Z,98550.34
2022-10-02T13:32:16.367Z,98549.63
2022-10-02T13:33:42.805Z,98557.47
2022-10-02T13:35:14.705Z,98557.16
2022-10-02T13:36:44.072Z,98549.31
2022-10-02T13:38:28.864Z,98546.06
2022-10-02T13:39:58.466Z,98540.66
2022-10-02T13:41:35.521Z,98550.16
2022-10-02T13:43:03.796Z,98547.97
2022-10-02T13:44:12.464Z,98543.53
2022-10-02T13:45:49.859Z,98535.56
2022-10-02T13:46:57.606Z,98540.53
2022-10-02T13:48:22.683Z,98535.97
2022-10-02T13:49:54.097Z,98538.31
2022-10-02T13:51:29.630Z,98543.63
2022-10-02T13:53:09.098Z,98537.47
2022-10-02T13:54:48.102Z,98540.91
2022-10-02T13:56:04.068Z,98541.31
2022-10-02T13:57:33.071Z,98547.41
2022-10-02T13:59:02.181Z,98542.47
2022-10-02T14:00:39.045Z,98534.53
2022-10-02T14:02:01.667Z,98538.34
2022-10-02T14:03:27.132Z,98540.69
2022-10-02T14:04:50.941Z,98538.81
2022-10-02T14:06:01.314Z,98534.25
2022-10-02T14:07:15.216Z,98531.53
2022-10-02T14:08:54.957Z,98532.22
2022-10-02T14:10:16.635Z,98522.44
2022-10-02T14:11:50.414Z,98524.69
2022-10-02T14:13:27.342Z,98528.13
2022-10-02T14:14:38.023Z,98523.94
2022-10-02T14:15:54.228Z,98527.72
2022-10-02T14:17:18.632Z,98525.81
2022-10-02T14:18:45.924Z,98529.69
2022-10-02T14:20:03.288Z,98529.56
2022-10-02T14:21:17.771Z,98528.06
2022-10-02T14:22:35.331Z,98532.97
2022-10-02T14:23:48.613Z,98532.66
2022-10-02T14:25:13.330Z,98532.34
2022-10-02T14:26:49.702Z,98529.31
2022-10-02T14:28:06.826Z,98534.22
2022-10-02T14:29:21.779Z,98531.53
2022-10-02T14:30:41.152Z,98528.13
2022-10-02T14:31:48.772Z,98528.13
2022-10-02T14:33:08.136Z,98520.19
2022-10-02T14:34:34.052Z,98524.72
2022-10-02T14:35:57.357Z,98523.63
2022-10-02T14:37:41.884Z,98519.13
2022-10-02T14:38:49.690Z,98515.69
2022-10-02T14:39:53.019Z,98517.97
2022-10-02T14:40:57.191Z,98523.28
2022-10-02T14:42:18.754Z,98532.81
2022-10-02T14:43:51.931Z,98532.78
2022-10-02T14:45:26.653Z,98535.41
2022-10-02T14:46:51.837Z,98539.22
2022-10-02T14:48:35.061Z,98539.19
2022-10-02T14:49:49.635Z,98543.28
2022-10-02T14:51:06.910Z,98547.44
2022-10-02T14:52:22.690Z,98543.22
2022-10-02T14:53:37.422Z,98534.56
2022-10-02T14:55:09.819Z,98536.50
2022-10-02T14:56:20.634Z,98537.22
2022-10-02T14:57:48.037Z,98541.34
2022-10-02T14:59:13.860Z,98537.94
2022-10-02T15:00:18.330Z,98538.06
2022-10-02T15:01:22.518Z,98532.38
2022-10-02T15:02:34.599Z,98537.28
2022-10-02T15:03:47.705Z,98539.22
2022-10-02T15:05:14.110Z,98545.31
2022-10-02T15:06:51.799Z,98548.00
2022-10-02T15:07:54.132Z,98550.28
2022-10-02T15:09:02.795Z,98549.09
2022-10-02T15:10:21.984Z,98551.03
2022-10-02T15:11:35.805Z,98559.19
2022-10-02T15:12:43.983Z,98552.03
2022-10-02T15:14:01.769Z,98557.72
2022-10-02T15:15:15.294Z,98555.41
2022-10-02T15:17:05.849Z,98553.16
2022-10-02T15:18:38.555Z,98563.03
2022-10-02T15:19:50.068Z,98556.19
2022-10-02T15:21:01.803Z,98557.72
2022-10-02T15:22:19.200Z,98561.53
2022-10-02T15:23:48.570Z,98556.22